createdAt,value
2019-06-26T06:00:33.513Z,1015.93
2019-06-26T06:01:33.491Z,1015.79
2019-06-26T06:02:33.482Z,1015.86
2019-06-26T06:03:33.481Z,1015.79
2019-06-26T06:04:33.449Z,1015.84
2019-06-26T06:05:33.434Z,1015.84
2019-06-26T06:06:41.616Z,1015.83
2019-06-26T06:08:43.785Z,1015.82
2019-06-26T06:09:43.745Z,1015.85
2019-06-26T06:10:43.766Z,1015.81
2019-06-26T06:11:43.766Z,1015.76
2019-06-26T06:12:43.742Z,1015.81
2019-06-26T06:13:43.709Z,1015.84
2019-06-26T06:14:43.691Z,1015.79
2019-06-26T06:15:43.687Z,1015.84
2019-06-26T06:16:47.874Z,1015.86
2019-06-26T06:17:43.690Z,1015.78
2019-06-26T06:18:43.662Z,1015.84
2019-06-26T06:19:43.644Z,1015.83
2019-06-26T06:20:43.626Z,1015.84
2019-06-26T06:21:43.634Z,1015.82
2019-06-26T06:22:43.627Z,1015.85
2019-06-26T06:23:43.631Z,1015.82
2019-06-26T06:24:43.672Z,1015.83
2019-06-26T06:25:43.597Z,1015.79
2019-06-26T06:26:43.607Z,1015.77
2019-06-26T06:27:43.581Z,1015.84
2019-06-26T06:28:43.548Z,1015.83
2019-06-26T06:29:43.619Z,1015.90
2019-06-26T06:30:51.077Z,1015.92
2019-06-26T06:31:43.523Z,1015.86
2019-06-26T06:32:43.504Z,1015.96
2019-06-26T06:33:43.519Z,1015.93
2019-06-26T06:34:43.487Z,1015.95
2019-06-26T06:35:43.468Z,1015.91
2019-06-26T06:36:43.460Z,1015.95
2019-06-26T06:37:43.481Z,1015.91
2019-06-26T06:38:43.487Z,1016.01
2019-06-26T06:39:43.426Z,1015.95
2019-06-26T06:40:43.421Z,1015.96
2019-06-26T06:41:43.668Z,1015.99
2019-06-26T06:42:43.392Z,1016.03
2019-06-26T06:43:43.917Z,1016.02
2019-06-26T06:44:43.405Z,1015.99
2019-06-26T06:45:43.584Z,1016.03
2019-06-26T06:46:43.353Z,1015.99
2019-06-26T06:47:43.345Z,1016.01
2019-06-26T06:48:43.443Z,1015.97
2019-06-26T06:49:43.345Z,1016.10
2019-06-26T06:50:43.362Z,1016.05
2019-06-26T06:51:43.302Z,1016.04
2019-06-26T06:52:43.325Z,1016.06
2019-06-26T06:53:43.314Z,1016.05
2019-06-26T06:54:43.268Z,1016.15
2019-06-26T06:55:43.291Z,1016.08
2019-06-26T06:56:43.252Z,1016.12
2019-06-26T06:57:43.268Z,1016.15
2019-06-26T06:58:43.258Z,1016.12
2019-06-26T06:59:43.255Z,1016.13
2019-06-26T07:00:43.266Z,1016.17
2019-06-26T07:01:43.203Z,1016.19
2019-06-26T07:02:43.195Z,1016.22
2019-06-26T07:03:43.180Z,1016.21
2019-06-26T07:04:43.203Z,1016.28
2019-06-26T07:05:43.179Z,1016.23
2019-06-26T07:06:43.145Z,1016.24
2019-06-26T07:07:43.151Z,1016.31
2019-06-26T07:08:43.159Z,1016.29
2019-06-26T07:09:43.161Z,1016.34
2019-06-26T07:10:43.115Z,1016.32
2019-06-26T07:11:43.126Z,1016.38
2019-06-26T07:12:43.102Z,1016.35
2019-06-26T07:13:43.072Z,1016.35
2019-06-26T07:14:43.113Z,1016.33
2019-06-26T07:15:43.112Z,1016.32
2019-06-26T07:16:43.044Z,1016.38
2019-06-26T07:17:43.089Z,1016.29
2019-06-26T07:18:43.083Z,1016.36
2019-06-26T07:19:43.038Z,1016.36
2019-06-26T07:20:44.767Z,1016.34
2019-06-26T07:21:42.993Z,1016.41
2019-06-26T07:22:42.989Z,1016.45
2019-06-26T07:23:42.970Z,1016.43
2019-06-26T07:24:42.999Z,1016.46
2019-06-26T07:25:42.996Z,1016.41
2019-06-26T07:26:42.937Z,1016.41
2019-06-26T07:27:42.923Z,1016.32
2019-06-26T07:28:43.007Z,1016.45
2019-06-26T07:29:42.939Z,1016.41
2019-06-26T07:30:42.894Z,1016.37
2019-06-26T07:31:42.898Z,1016.48
2019-06-26T07:32:42.889Z,1016.40
2019-06-26T07:33:42.996Z,1016.40
2019-06-26T07:34:42.862Z,1016.56
2019-06-26T07:35:42.947Z,1016.56
2019-06-26T07:36:42.900Z,1016.51
2019-06-26T07:37:42.819Z,1016.57
2019-06-26T07:38:42.863Z,1016.53
2019-06-26T07:39:42.829Z,1016.55
2019-06-26T07:40:42.806Z,1016.51
2019-06-26T07:41:42.775Z,1016.55
2019-06-26T07:42:42.871Z,1016.61
2019-06-26T07:43:42.819Z,1016.64
2019-06-26T07:44:42.765Z,1016.65
2019-06-26T07:45:42.740Z,1016.64
2019-06-26T07:46:42.726Z,1016.65
2019-06-26T07:47:44.256Z,1016.57
2019-06-26T07:48:42.757Z,1016.63
2019-06-26T07:49:42.726Z,1016.63
2019-06-26T07:50:42.706Z,1016.59
2019-06-26T07:51:42.695Z,1016.59
2019-06-26T07:52:42.878Z,1016.59
2019-06-26T07:53:42.662Z,1016.64
2019-06-26T07:54:42.668Z,1016.59
2019-06-26T07:55:42.637Z,1016.61
2019-06-26T07:56:42.658Z,1016.60
2019-06-26T07:57:42.617Z,1016.58
2019-06-26T07:58:42.655Z,1016.58
2019-06-26T07:59:42.675Z,1016.68
2019-06-26T08:00:42.596Z,1016.64
2019-06-26T08:01:42.594Z,1016.62
2019-06-26T08:02:42.566Z,1016.61
2019-06-26T08:03:42.550Z,1016.62
2019-06-26T08:04:42.576Z,1016.63
2019-06-26T08:05:43.255Z,1016.62
2019-06-26T08:06:42.547Z,1016.64
2019-06-26T08:07:42.515Z,1016.64
2019-06-26T08:08:42.514Z,1016.60
2019-06-26T08:09:42.519Z,1016.60
2019-06-26T08:10:42.527Z,1016.59
2019-06-26T08:11:42.505Z,1016.55
2019-06-26T08:12:42.492Z,1016.63
2019-06-26T08:13:42.458Z,1016.58
2019-06-26T08:14:42.535Z,1016.62
2019-06-26T08:15:42.424Z,1016.66
2019-06-26T08:16:42.448Z,1016.70
2019-06-26T08:17:58.801Z,1016.68
2019-06-26T08:18:43.396Z,1016.69
2019-06-26T08:19:42.438Z,1016.63
2019-06-26T08:20:55.482Z,1016.63
2019-06-26T08:22:52.732Z,1016.68
2019-06-26T08:23:52.687Z,1016.68
2019-06-26T08:24:52.709Z,1016.64
2019-06-26T08:25:52.714Z,1016.66
2019-06-26T08:26:52.658Z,1016.65
2019-06-26T08:27:52.695Z,1016.72
2019-06-26T08:28:52.636Z,1016.69
2019-06-26T08:29:52.669Z,1016.61
2019-06-26T08:30:52.859Z,1016.65
2019-06-26T08:31:52.610Z,1016.70
2019-06-26T08:32:52.658Z,1016.65
2019-06-26T08:33:52.586Z,1016.64
2019-06-26T08:34:52.577Z,1016.61
2019-06-26T08:35:52.595Z,1016.66
2019-06-26T08:36:52.594Z,1016.63
2019-06-26T08:38:09.079Z,1016.55
2019-06-26T08:38:53.582Z,1016.56
2019-06-26T08:39:52.547Z,1016.60
2019-06-26T08:40:52.523Z,1016.59
2019-06-26T08:41:52.843Z,1016.50
2019-06-26T08:42:52.528Z,1016.57
2019-06-26T08:43:52.492Z,1016.61
2019-06-26T08:44:52.518Z,1016.57
2019-06-26T08:45:52.476Z,1016.60
2019-06-26T08:46:52.466Z,1016.59
2019-06-26T08:47:52.438Z,1016.53
2019-06-26T08:48:52.457Z,1016.57
2019-06-26T08:49:52.472Z,1016.58
2019-06-26T08:50:52.416Z,1016.57
2019-06-26T08:51:52.398Z,1016.59
2019-06-26T08:52:52.458Z,1016.62
2019-06-26T08:53:52.381Z,1016.64
2019-06-26T08:54:52.381Z,1016.64
2019-06-26T08:55:52.385Z,1016.59
2019-06-26T08:56:52.344Z,1016.57
2019-06-26T08:57:52.428Z,1016.59
2019-06-26T08:58:52.348Z,1016.69
2019-06-26T08:59:52.322Z,1016.57
2019-06-26T09:00:52.357Z,1016.57
2019-06-26T09:01:52.369Z,1016.63
2019-06-26T09:02:52.303Z,1016.67
2019-06-26T09:03:52.285Z,1016.61
2019-06-26T09:04:52.272Z,1016.57
2019-06-26T09:05:52.311Z,1016.63
2019-06-26T09:06:52.292Z,1016.62
2019-06-26T09:07:52.269Z,1016.66
2019-06-26T09:08:52.249Z,1016.68
2019-06-26T09:09:52.215Z,1016.68
2019-06-26T09:10:52.208Z,1016.67
2019-06-26T09:11:52.302Z,1016.64
2019-06-26T09:12:52.183Z,1016.70
2019-06-26T09:13:52.169Z,1016.68
2019-06-26T09:14:52.158Z,1016.76
2019-06-26T09:15:52.151Z,1016.78
2019-06-26T09:16:52.182Z,1016.75
2019-06-26T09:17:52.129Z,1016.73
2019-06-26T09:18:52.131Z,1016.78
2019-06-26T09:19:52.108Z,1016.78
2019-06-26T09:20:52.197Z,1016.74
2019-06-26T09:21:52.126Z,1016.80
2019-06-26T09:22:52.087Z,1016.76
2019-06-26T09:23:52.164Z,1016.73
2019-06-26T09:24:52.092Z,1016.75
2019-06-26T09:25:52.047Z,1016.68
2019-06-26T09:26:52.060Z,1016.70
2019-06-26T09:27:52.033Z,1016.68
2019-06-26T09:28:52.015Z,1016.67
2019-06-26T09:29:52.043Z,1016.72
2019-06-26T09:30:52.025Z,1016.67
2019-06-26T09:31:52.019Z,1016.71
2019-06-26T09:32:51.998Z,1016.69
2019-06-26T09:33:51.966Z,1016.72
2019-06-26T09:34:51.983Z,1016.72
2019-06-26T09:35:51.978Z,1016.71
2019-06-26T09:36:51.932Z,1016.67
2019-06-26T09:37:51.926Z,1016.68
2019-06-26T09:38:51.911Z,1016.71
2019-06-26T09:39:51.905Z,1016.61
2019-06-26T09:40:52.347Z,1016.64
2019-06-26T09:41:51.893Z,1016.59
2019-06-26T09:42:59.413Z,1016.67
2019-06-26T09:43:51.915Z,1016.57
2019-06-26T09:44:51.855Z,1016.60
2019-06-26T09:45:51.869Z,1016.53
2019-06-26T09:46:51.838Z,1016.57
2019-06-26T09:47:51.828Z,1016.61
2019-06-26T09:48:53.501Z,1016.56
2019-06-26T09:49:51.873Z,1016.52
2019-06-26T09:50:51.790Z,1016.49
2019-06-26T09:51:51.783Z,1016.56
2019-06-26T09:52:51.782Z,1016.53
2019-06-26T09:53:51.784Z,1016.48
2019-06-26T09:54:51.794Z,1016.55
2019-06-26T09:55:51.743Z,1016.52
2019-06-26T09:56:51.738Z,1016.52
2019-06-26T09:57:52.272Z,1016.50
2019-06-26T09:58:51.748Z,1016.55
2019-06-26T09:59:51.741Z,1016.51
2019-06-26T10:00:51.694Z,1016.49
2019-06-26T10:01:51.688Z,1016.51
2019-06-26T10:02:51.765Z,1016.46
2019-06-26T10:03:51.654Z,1016.49
2019-06-26T10:04:51.648Z,1016.48
2019-06-26T10:05:51.652Z,1016.46
2019-06-26T10:06:51.690Z,1016.48
2019-06-26T10:07:51.693Z,1016.47
2019-06-26T10:08:54.167Z,1016.51
2019-06-26T10:09:51.596Z,1016.50
2019-06-26T10:10:51.645Z,1016.41
2019-06-26T10:11:51.610Z,1016.46
2019-06-26T10:12:59.136Z,1016.43
2019-06-26T10:13:51.574Z,1016.51
2019-06-26T10:14:51.571Z,1016.42
2019-06-26T10:15:51.528Z,1016.54
2019-06-26T10:16:51.548Z,1016.52
2019-06-26T10:17:51.519Z,1016.54
2019-06-26T10:19:05.580Z,1016.55
2019-06-26T10:19:54.127Z,1016.58
2019-06-26T10:20:51.509Z,1016.55
2019-06-26T10:21:51.476Z,1016.56
2019-06-26T10:22:51.536Z,1016.53
2019-06-26T10:23:51.483Z,1016.59
2019-06-26T10:24:51.506Z,1016.59
2019-06-26T10:25:51.426Z,1016.57
2019-06-26T10:26:51.428Z,1016.59
2019-06-26T10:27:51.426Z,1016.53
2019-06-26T10:28:51.403Z,1016.57
2019-06-26T10:29:51.477Z,1016.64
2019-06-26T10:30:51.393Z,1016.56
2019-06-26T10:31:54.527Z,1016.50
2019-06-26T10:32:51.354Z,1016.50
2019-06-26T10:33:51.432Z,1016.62
2019-06-26T10:34:51.336Z,1016.57
2019-06-26T10:35:51.335Z,1016.61
2019-06-26T10:36:51.318Z,1016.66
2019-06-26T10:37:51.397Z,1016.69
2019-06-26T10:38:51.326Z,1016.61
2019-06-26T10:39:51.319Z,1016.62
2019-06-26T10:40:51.315Z,1016.67
2019-06-26T10:41:54.717Z,1016.56
2019-06-26T10:42:51.368Z,1016.59
2019-06-26T10:43:51.245Z,1016.64
2019-06-26T10:44:51.235Z,1016.63
2019-06-26T10:45:51.227Z,1016.62
2019-06-26T10:46:51.302Z,1016.59
2019-06-26T10:47:51.240Z,1016.59
2019-06-26T10:48:51.221Z,1016.60
2019-06-26T10:49:51.183Z,1016.58
2019-06-26T10:50:58.174Z,1016.58
2019-06-26T10:51:52.222Z,1016.65
2019-06-26T10:52:51.181Z,1016.59
2019-06-26T10:53:51.157Z,1016.60
2019-06-26T10:54:51.133Z,1016.57
2019-06-26T10:55:51.143Z,1016.59
2019-06-26T10:56:51.109Z,1016.56
2019-06-26T10:57:51.158Z,1016.55
2019-06-26T10:58:51.089Z,1016.57
2019-06-26T10:59:55.337Z,1016.53
2019-06-26T11:00:51.165Z,1016.52
2019-06-26T11:01:51.069Z,1016.58
2019-06-26T11:02:51.085Z,1016.59
2019-06-26T11:03:51.035Z,1016.58
2019-06-26T11:04:51.051Z,1016.62
2019-06-26T11:05:51.345Z,1016.54
2019-06-26T11:06:51.012Z,1016.54
2019-06-26T11:07:50.997Z,1016.55
2019-06-26T11:08:51.103Z,1016.54
2019-06-26T11:09:50.985Z,1016.52
2019-06-26T11:10:51.016Z,1016.54
2019-06-26T11:11:50.990Z,1016.57
2019-06-26T11:12:51.011Z,1016.51
2019-06-26T11:13:50.936Z,1016.48
2019-06-26T11:14:50.988Z,1016.46
2019-06-26T11:15:51.003Z,1016.50
2019-06-26T11:16:51.026Z,1016.47
2019-06-26T11:17:50.961Z,1016.42
2019-06-26T11:18:50.911Z,1016.46
2019-06-26T11:19:50.908Z,1016.45
2019-06-26T11:20:50.935Z,1016.46
2019-06-26T11:21:50.936Z,1016.51
2019-06-26T11:22:51.105Z,1016.59
2019-06-26T11:23:50.871Z,1016.54
2019-06-26T11:24:50.961Z,1016.51
2019-06-26T11:25:50.861Z,1016.45
2019-06-26T11:26:50.815Z,1016.47
2019-06-26T11:27:50.840Z,1016.47
2019-06-26T11:28:50.784Z,1016.41
2019-06-26T11:29:50.779Z,1016.50
2019-06-26T11:30:50.805Z,1016.53
2019-06-26T11:31:50.770Z,1016.53
2019-06-26T11:32:50.740Z,1016.49
2019-06-26T11:33:50.762Z,1016.51
2019-06-26T11:34:50.758Z,1016.57
2019-06-26T11:35:50.787Z,1016.53
2019-06-26T11:37:03.177Z,1016.55
2019-06-26T11:37:51.690Z,1016.52
2019-06-26T11:38:50.681Z,1016.47
2019-06-26T11:39:50.793Z,1016.48
2019-06-26T11:40:50.704Z,1016.46
2019-06-26T11:41:50.690Z,1016.57
2019-06-26T11:42:50.652Z,1016.59
2019-06-26T11:43:50.636Z,1016.48
2019-06-26T11:44:50.663Z,1016.51
2019-06-26T11:45:50.649Z,1016.48
2019-06-26T11:46:50.619Z,1016.47
2019-06-26T11:47:50.603Z,1016.46
2019-06-26T11:48:50.628Z,1016.44
2019-06-26T11:49:59.715Z,1016.34
2019-06-26T11:50:51.561Z,1016.37
2019-06-26T11:51:50.595Z,1016.43
2019-06-26T11:52:50.549Z,1016.40
2019-06-26T11:53:50.559Z,1016.42
2019-06-26T11:55:02.013Z,1016.40
2019-06-26T11:55:51.526Z,1016.40
2019-06-26T11:56:50.541Z,1016.44
2019-06-26T11:57:50.554Z,1016.38
2019-06-26T11:58:50.488Z,1016.34
2019-06-26T11:59:50.502Z,1016.40
2019-06-26T12:00:50.485Z,1016.38
2019-06-26T12:01:50.470Z,1016.36
2019-06-26T12:02:57.995Z,1016.41
2019-06-26T12:03:50.434Z,1016.44
2019-06-26T12:04:50.446Z,1016.40
2019-06-26T12:05:50.469Z,1016.37
2019-06-26T12:06:50.412Z,1016.40
2019-06-26T12:07:50.406Z,1016.38
2019-06-26T12:08:50.443Z,1016.39
2019-06-26T12:09:50.498Z,1016.36
2019-06-26T12:10:50.376Z,1016.28
2019-06-26T12:11:50.362Z,1016.35
2019-06-26T12:12:50.406Z,1016.31
2019-06-26T12:13:51.391Z,1016.32
2019-06-26T12:14:50.386Z,1016.35
2019-06-26T12:15:50.633Z,1016.39
2019-06-26T12:16:50.307Z,1016.35
2019-06-26T12:17:50.291Z,1016.31
2019-06-26T12:18:50.323Z,1016.31
2019-06-26T12:19:50.281Z,1016.27
2019-06-26T12:20:50.281Z,1016.27
2019-06-26T12:21:50.275Z,1016.24
2019-06-26T12:22:50.286Z,1016.30
2019-06-26T12:23:51.023Z,1016.28
2019-06-26T12:24:50.225Z,1016.27
2019-06-26T12:25:50.273Z,1016.20
2019-06-26T12:26:50.318Z,1016.25
2019-06-26T12:27:50.226Z,1016.26
2019-06-26T12:28:50.177Z,1016.32
2019-06-26T12:29:50.189Z,1016.17
2019-06-26T12:30:50.191Z,1016.24
2019-06-26T12:31:50.184Z,1016.25
2019-06-26T12:33:02.487Z,1016.21
2019-06-26T12:33:51.128Z,1016.23
2019-06-26T12:34:50.183Z,1016.22
2019-06-26T12:35:50.142Z,1016.27
2019-06-26T12:36:50.098Z,1016.13
2019-06-26T12:37:50.142Z,1016.23
2019-06-26T12:38:50.085Z,1016.17
2019-06-26T12:39:50.101Z,1016.17
2019-06-26T12:40:50.153Z,1016.16
2019-06-26T12:41:50.070Z,1016.16
2019-06-26T12:42:50.043Z,1016.19
2019-06-26T12:43:50.032Z,1016.13
2019-06-26T12:44:50.084Z,1016.16
2019-06-26T12:45:50.007Z,1016.10
2019-06-26T12:46:50.088Z,1016.20
2019-06-26T12:47:50.121Z,1016.09
2019-06-26T12:48:50.018Z,1016.14
2019-06-26T12:49:49.987Z,1016.14
2019-06-26T12:50:49.964Z,1016.08
2019-06-26T12:51:49.946Z,1016.14
2019-06-26T12:52:49.971Z,1016.16
2019-06-26T12:53:49.938Z,1016.13
2019-06-26T12:54:49.908Z,1016.13
2019-06-26T12:55:51.545Z,1016.09
2019-06-26T12:56:49.910Z,1016.15
2019-06-26T12:57:49.881Z,1016.08
2019-06-26T12:58:49.894Z,1016.12
2019-06-26T12:59:57.218Z,1016.12
2019-06-26T13:00:50.849Z,1016.15
2019-06-26T13:01:49.901Z,1016.12
2019-06-26T13:02:49.845Z,1016.13
2019-06-26T13:03:49.829Z,1016.17
2019-06-26T13:04:49.818Z,1016.16
2019-06-26T13:05:49.829Z,1016.17
2019-06-26T13:06:49.803Z,1016.18
2019-06-26T13:07:58.354Z,1016.16
2019-06-26T13:08:49.794Z,1016.12
2019-06-26T13:09:49.783Z,1016.10
2019-06-26T13:10:50.620Z,1016.12
2019-06-26T13:11:49.845Z,1016.11
2019-06-26T13:12:49.734Z,1016.07
2019-06-26T13:14:01.974Z,1016.14
2019-06-26T13:14:50.715Z,1016.10
2019-06-26T13:15:51.082Z,1016.11
2019-06-26T13:16:49.712Z,1016.09
2019-06-26T13:17:49.764Z,1016.07
2019-06-26T13:18:49.742Z,1016.04
2019-06-26T13:19:49.733Z,1016.02
2019-06-26T13:20:53.319Z,1016.12
2019-06-26T13:21:49.673Z,1016.11
2019-06-26T13:22:49.647Z,1016.11
2019-06-26T13:23:49.615Z,1016.15
2019-06-26T13:24:49.640Z,1016.07
2019-06-26T13:25:49.647Z,1016.09
2019-06-26T13:26:49.627Z,1016.10
2019-06-26T13:27:49.602Z,1016.12
2019-06-26T13:28:49.583Z,1016.11
2019-06-26T13:29:49.561Z,1016.20
2019-06-26T13:30:53.104Z,1016.19
2019-06-26T13:31:49.698Z,1016.09
2019-06-26T13:32:49.540Z,1016.08
2019-06-26T13:33:49.528Z,1016.15
2019-06-26T13:34:49.511Z,1016.16
2019-06-26T13:35:49.573Z,1016.11
2019-06-26T13:36:49.501Z,1016.17
2019-06-26T13:37:49.475Z,1016.13
2019-06-26T13:38:49.476Z,1016.14
2019-06-26T13:39:49.495Z,1016.14
2019-06-26T13:40:49.484Z,1016.08
2019-06-26T13:41:49.513Z,1016.10
2019-06-26T13:42:49.428Z,1016.14
2019-06-26T13:43:49.413Z,1016.14
2019-06-26T13:44:49.404Z,1016.16
2019-06-26T13:45:49.424Z,1016.17
2019-06-26T13:46:49.391Z,1016.21
2019-06-26T13:47:49.408Z,1016.16
2019-06-26T13:48:49.363Z,1016.17
2019-06-26T13:49:49.386Z,1016.18
2019-06-26T13:50:49.350Z,1016.15
2019-06-26T13:51:49.378Z,1016.24
2019-06-26T13:52:49.333Z,1016.23
2019-06-26T13:53:49.384Z,1016.22
2019-06-26T13:54:49.361Z,1016.24
2019-06-26T13:55:49.305Z,1016.28
2019-06-26T13:56:49.284Z,1016.20
2019-06-26T13:57:49.341Z,1016.21
2019-06-26T13:58:56.828Z,1016.18
2019-06-26T13:59:49.346Z,1016.24
2019-06-26T14:00:49.266Z,1016.23
2019-06-26T14:01:49.294Z,1016.19
2019-06-26T14:02:49.244Z,1016.24
2019-06-26T14:03:49.229Z,1016.21
2019-06-26T14:04:49.206Z,1016.27
2019-06-26T14:05:49.191Z,1016.14
2019-06-26T14:06:49.416Z,1016.27
2019-06-26T14:07:49.180Z,1016.21
2019-06-26T14:08:49.161Z,1016.20
2019-06-26T14:09:49.191Z,1016.28
2019-06-26T14:10:49.195Z,1016.29
2019-06-26T14:11:49.132Z,1016.29
2019-06-26T14:12:49.145Z,1016.23
2019-06-26T14:13:49.135Z,1016.35
2019-06-26T14:14:57.275Z,1016.29
2019-06-26T14:15:50.094Z,1016.20
2019-06-26T14:16:49.080Z,1016.22
2019-06-26T14:17:49.134Z,1016.33
2019-06-26T14:18:49.078Z,1016.25
2019-06-26T14:19:50.235Z,1016.24
2019-06-26T14:20:49.056Z,1016.17
2019-06-26T14:21:49.035Z,1016.15
2019-06-26T14:22:49.017Z,1016.18
2019-06-26T14:23:49.059Z,1016.12
2019-06-26T14:24:49.036Z,1016.15
2019-06-26T14:25:49.006Z,1016.09
2019-06-26T14:26:49.025Z,1016.10
2019-06-26T14:27:48.997Z,1016.11
2019-06-26T14:28:48.996Z,1016.06
2019-06-26T14:29:48.952Z,1016.06
2019-06-26T14:30:48.950Z,1016.07
2019-06-26T14:31:48.939Z,1016.06
2019-06-26T14:32:48.956Z,1016.11
2019-06-26T14:33:48.918Z,1016.05
2019-06-26T14:34:48.939Z,1016.04
2019-06-26T14:35:48.902Z,1016.07
2019-06-26T14:36:48.884Z,1016.07
2019-06-26T14:37:48.895Z,1016.06
2019-06-26T14:38:48.881Z,1016.13
2019-06-26T14:39:48.906Z,1016.09
2019-06-26T14:40:48.852Z,1016.11
2019-06-26T14:41:48.837Z,1016.10
2019-06-26T14:42:48.831Z,1016.07
2019-06-26T14:43:48.816Z,1016.07
2019-06-26T14:44:48.836Z,1016.10
2019-06-26T14:45:48.806Z,1016.08
2019-06-26T14:46:48.816Z,1016.04
2019-06-26T14:47:48.810Z,1016.05
2019-06-26T14:48:48.767Z,1016.00
2019-06-26T14:49:48.796Z,1015.98
2019-06-26T14:50:48.746Z,1015.99
2019-06-26T14:51:48.754Z,1016.04
2019-06-26T14:52:48.713Z,1015.98
2019-06-26T14:53:48.748Z,1015.97
2019-06-26T14:54:48.794Z,1015.95
2019-06-26T14:55:48.690Z,1015.94
2019-06-26T14:56:48.686Z,1016.04
2019-06-26T14:57:48.699Z,1015.95
2019-06-26T14:58:48.659Z,1015.95
2019-06-26T14:59:48.813Z,1015.94
2019-06-26T15:00:48.635Z,1016.00
2019-06-26T15:01:48.628Z,1015.95
2019-06-26T15:02:48.640Z,1015.91
2019-06-26T15:03:48.599Z,1015.89
2019-06-26T15:04:48.648Z,1015.86
2019-06-26T15:05:48.584Z,1015.90
2019-06-26T15:06:48.582Z,1015.87
2019-06-26T15:07:50.184Z,1015.90
2019-06-26T15:08:48.583Z,1015.88
2019-06-26T15:09:48.575Z,1015.83
2019-06-26T15:10:48.564Z,1015.81
2019-06-26T15:11:48.537Z,1015.85
2019-06-26T15:12:48.523Z,1015.76
2019-06-26T15:13:48.506Z,1015.76
2019-06-26T15:14:48.525Z,1015.78
2019-06-26T15:15:48.498Z,1015.79
2019-06-26T15:16:48.529Z,1015.78
2019-06-26T15:17:48.550Z,1015.74
2019-06-26T15:18:48.470Z,1015.82
2019-06-26T15:19:48.481Z,1015.80
2019-06-26T15:20:48.471Z,1015.74
2019-06-26T15:21:57.830Z,1015.70
2019-06-26T15:22:49.466Z,1015.69
2019-06-26T15:23:48.412Z,1015.70
2019-06-26T15:24:48.409Z,1015.70
2019-06-26T15:25:48.483Z,1015.75
2019-06-26T15:26:48.421Z,1015.71
2019-06-26T15:27:48.397Z,1015.77
2019-06-26T15:28:48.353Z,1015.65
2019-06-26T15:29:48.362Z,1015.66
2019-06-26T15:30:48.387Z,1015.63
2019-06-26T15:31:48.324Z,1015.60
2019-06-26T15:32:48.345Z,1015.63
2019-06-26T15:33:48.341Z,1015.60
2019-06-26T15:34:48.332Z,1015.55
2019-06-26T15:35:48.279Z,1015.54
2019-06-26T15:36:48.312Z,1015.56
2019-06-26T15:37:48.320Z,1015.50
2019-06-26T15:38:48.398Z,1015.52
2019-06-26T15:39:48.254Z,1015.52
2019-06-26T15:40:48.265Z,1015.47
2019-06-26T15:41:48.246Z,1015.48
2019-06-26T15:42:49.172Z,1015.43
2019-06-26T15:43:48.220Z,1015.42
2019-06-26T15:44:48.186Z,1015.44
2019-06-26T15:45:48.176Z,1015.46
2019-06-26T15:46:48.206Z,1015.44
2019-06-26T15:47:48.194Z,1015.39
2019-06-26T15:48:50.300Z,1015.44
2019-06-26T15:49:48.142Z,1015.37
2019-06-26T15:50:48.123Z,1015.43
2019-06-26T15:51:48.174Z,1015.40
2019-06-26T15:52:55.692Z,1015.39
2019-06-26T15:53:48.093Z,1015.31
2019-06-26T15:54:48.122Z,1015.41
2019-06-26T15:55:48.080Z,1015.34
2019-06-26T15:56:48.071Z,1015.39
2019-06-26T15:57:48.112Z,1015.33
2019-06-26T15:58:48.143Z,1015.34
2019-06-26T15:59:48.033Z,1015.37
2019-06-26T16:00:48.069Z,1015.36
2019-06-26T16:01:48.035Z,1015.33
2019-06-26T16:02:48.042Z,1015.36
2019-06-26T16:03:48.005Z,1015.37
2019-06-26T16:04:47.990Z,1015.32
2019-06-26T16:05:48.037Z,1015.36
2019-06-26T16:06:47.970Z,1015.32
2019-06-26T16:07:47.986Z,1015.32
2019-06-26T16:08:47.939Z,1015.28
2019-06-26T16:09:47.936Z,1015.36
2019-06-26T16:10:47.964Z,1015.38
2019-06-26T16:11:47.927Z,1015.33
2019-06-26T16:12:47.969Z,1015.41
2019-06-26T16:13:47.908Z,1015.39
2019-06-26T16:14:47.888Z,1015.49
2019-06-26T16:15:47.876Z,1015.40
2019-06-26T16:16:47.872Z,1015.44
2019-06-26T16:17:47.892Z,1015.41
2019-06-26T16:18:47.849Z,1015.40
2019-06-26T16:19:47.848Z,1015.42
2019-06-26T16:20:47.820Z,1015.40
2019-06-26T16:21:47.860Z,1015.43
2019-06-26T16:22:47.809Z,1015.47
2019-06-26T16:23:47.809Z,1015.46
2019-06-26T16:24:47.848Z,1015.56
2019-06-26T16:25:47.831Z,1015.42
2019-06-26T16:26:47.770Z,1015.45
2019-06-26T16:28:01.063Z,1015.48
2019-06-26T16:28:48.758Z,1015.48
2019-06-26T16:29:48.657Z,1015.51
2019-06-26T16:30:47.766Z,1015.51
2019-06-26T16:31:47.728Z,1015.53
2019-06-26T16:32:47.732Z,1015.54
2019-06-26T16:33:47.691Z,1015.55
2019-06-26T16:34:47.680Z,1015.54
2019-06-26T16:35:47.671Z,1015.57
2019-06-26T16:36:47.690Z,1015.55
2019-06-26T16:37:48.025Z,1015.57
2019-06-26T16:38:47.649Z,1015.57
2019-06-26T16:39:47.627Z,1015.64
2019-06-26T16:40:47.667Z,1015.63
2019-06-26T16:41:49.139Z,1015.60
2019-06-26T16:42:47.600Z,1015.64
2019-06-26T16:43:47.592Z,1015.57
2019-06-26T16:44:47.608Z,1015.61
2019-06-26T16:45:47.566Z,1015.62
2019-06-26T16:46:47.568Z,1015.61
2019-06-26T16:47:47.632Z,1015.62
2019-06-26T16:48:47.576Z,1015.60
2019-06-26T16:49:47.548Z,1015.71
2019-06-26T16:50:50.605Z,1015.65
2019-06-26T16:51:47.514Z,1015.71
2019-06-26T16:52:49.558Z,1015.70
2019-06-26T16:53:47.494Z,1015.62
2019-06-26T16:54:47.525Z,1015.67
2019-06-26T16:55:47.481Z,1015.71
2019-06-26T16:56:47.465Z,1015.61
2019-06-26T16:57:47.489Z,1015.66
2019-06-26T16:58:47.465Z,1015.70
2019-06-26T16:59:47.506Z,1015.63
2019-06-26T17:00:47.429Z,1015.65
2019-06-26T17:01:47.422Z,1015.63
2019-06-26T17:02:47.422Z,1015.62
2019-06-26T17:03:47.420Z,1015.62
2019-06-26T17:04:47.376Z,1015.65
2019-06-26T17:05:47.362Z,1015.64
2019-06-26T17:06:47.398Z,1015.70
2019-06-26T17:07:47.382Z,1015.71
2019-06-26T17:08:47.458Z,1015.72
2019-06-26T17:09:47.737Z,1015.67
2019-06-26T17:10:47.316Z,1015.69
2019-06-26T17:11:47.356Z,1015.69
2019-06-26T17:12:47.317Z,1015.72
2019-06-26T17:13:47.311Z,1015.69
2019-06-26T17:14:47.292Z,1015.64
2019-06-26T17:15:47.264Z,1015.70
2019-06-26T17:16:47.311Z,1015.73
2019-06-26T17:17:47.251Z,1015.68
2019-06-26T17:18:47.263Z,1015.63
2019-06-26T17:19:47.225Z,1015.66
2019-06-26T17:20:47.256Z,1015.64
2019-06-26T17:21:47.243Z,1015.66
2019-06-26T17:22:47.199Z,1015.65
2019-06-26T17:23:47.184Z,1015.65
2019-06-26T17:24:47.211Z,1015.69
2019-06-26T17:25:47.215Z,1015.66
2019-06-26T17:26:47.244Z,1015.66
2019-06-26T17:27:47.283Z,1015.68
2019-06-26T17:28:47.139Z,1015.71
2019-06-26T17:29:47.212Z,1015.67
2019-06-26T17:30:47.129Z,1015.71
2019-06-26T17:31:47.101Z,1015.71
2019-06-26T17:32:47.128Z,1015.76
2019-06-26T17:33:47.138Z,1015.70
2019-06-26T17:34:47.100Z,1015.69
2019-06-26T17:35:47.078Z,1015.73
2019-06-26T17:36:47.095Z,1015.69
2019-06-26T17:37:47.044Z,1015.75
2019-06-26T17:38:47.029Z,1015.72
2019-06-26T17:39:47.213Z,1015.72
2019-06-26T17:40:47.044Z,1015.78
2019-06-26T17:41:47.005Z,1015.74
2019-06-26T17:42:47.030Z,1015.71
2019-06-26T17:43:47.068Z,1015.76
2019-06-26T17:44:47.010Z,1015.71
2019-06-26T17:45:47.014Z,1015.76
2019-06-26T17:46:46.964Z,1015.73
2019-06-26T17:47:46.974Z,1015.73
2019-06-26T17:48:55.517Z,1015.74
2019-06-26T17:49:46.947Z,1015.72
2019-06-26T17:50:46.927Z,1015.73
2019-06-26T17:51:46.914Z,1015.69
2019-06-26T17:52:46.929Z,1015.76
2019-06-26T17:53:46.887Z,1015.68
2019-06-26T17:54:46.911Z,1015.76
2019-06-26T17:55:46.860Z,1015.75
2019-06-26T17:56:46.944Z,1015.68
2019-06-26T17:57:47.741Z,1015.73
2019-06-26T17:58:46.845Z,1015.72
2019-06-26T17:59:46.815Z,1015.70
2019-06-26T18:00:46.812Z,1015.70
2019-06-26T18:01:46.872Z,1015.66
2019-06-26T18:02:46.791Z,1015.66
2019-06-26T18:03:46.781Z,1015.64
2019-06-26T18:04:46.809Z,1015.70
2019-06-26T18:05:46.809Z,1015.68
2019-06-26T18:06:46.830Z,1015.67
2019-06-26T18:07:46.741Z,1015.67